Time;durP1;ratioP1;P1;durP2;ratioP2;P2;SDS_P1;SDS_P2;PMS_P1;PMS_P2;Temp;Humidity;BMP_temperature;BMP_pressure;BME280_temperature;BME280_humidity;BME280_pressure;Samples;Min_cycle;Max_cycle;Signal;HPM_P1;HPM_P2
2022/11/06 00:01:13;;;;;;;2.00;1.00;;;22.60;94.40;;;;;;4998142;28;20449;-85
2022/11/06 00:03:41;;;;;;;4.23;1.17;;;22.40;93.70;;;;;;5008707;28;20397;-88
2022/11/06 00:09:00;;;;;;;2.75;1.08;;;22.10;95.30;;;;;;5011743;28;20458;-87
2022/11/06 00:11:29;;;;;;;5.40;1.10;;;22.30;95.80;;;;;;5001230;28;20383;-88
2022/11/06 00:13:56;;;;;;;6.88;2.45;;;22.60;95.90;;;;;;5009353;28;20425;-89
2022/11/06 00:16:23;;;;;;;12.23;4.30;;;23.30;94.80;;;;;;5010453;28;20417;-86
2022/11/06 00:18:50;;;;;;;6.53;1.90;;;23.60;93.80;;;;;;5004279;28;20412;-86
2022/11/06 00:21:23;;;;;;;5.82;2.10;;;23.90;93.40;;;;;;5004556;28;20393;-85
2022/11/06 00:23:52;;;;;;;3.60;1.20;;;24.20;92.80;;;;;;4994992;28;20447;-84
2022/11/06 00:26:22;;;;;;;4.60;1.30;;;24.30;91.00;;;;;;5008561;28;20394;-86
2022/11/06 00:28:50;;;;;;;3.92;1.25;;;24.70;91.00;;;;;;5011613;28;20847;-85
2022/11/06 00:31:22;;;;;;;3.70;1.20;;;25.50;88.60;;;;;;5007930;28;20453;-85
2022/11/06 00:33:49;;;;;;;2.58;1.10;;;26.00;84.40;;;;;;5004927;28;20392;-87
2022/11/06 00:36:19;;;;;;;4.03;1.40;;;26.40;81.90;;;;;;5005668;28;20390;-90
2022/11/06 00:38:46;;;;;;;3.63;1.10;;;26.30;81.80;;;;;;5009783;28;20401;-85
2022/11/06 00:41:16;;;;;;;4.70;1.33;;;26.20;79.60;;;;;;4997554;28;20384;-87
2022/11/06 00:43:47;;;;;;;2.75;1.10;;;26.20;78.70;;;;;;4979600;28;20984;-89
2022/11/06 00:46:16;;;;;;;3.93;1.07;;;25.90;78.20;;;;;;5004628;28;20399;-92
2022/11/06 00:48:43;;;;;;;4.70;1.20;;;25.50;77.10;;;;;;5011912;28;20375;-88
2022/11/06 00:51:13;;;;;;;3.90;1.20;;;25.10;76.60;;;;;;5005025;28;20385;-89
2022/11/06 00:53:41;;;;;;;2.83;1.10;;;24.50;79.00;;;;;;5003829;28;20456;-87
2022/11/06 00:56:12;;;;;;;4.70;1.13;;;24.20;82.50;;;;;;5015829;28;20424;-90
2022/11/06 00:58:39;;;;;;;3.70;1.20;;;24.00;83.50;;;;;;5007350;28;20446;-87
2022/11/06 01:01:15;;;;;;;3.58;1.20;;;24.30;86.00;;;;;;4999468;28;20401;-85
2022/11/06 01:03:44;;;;;;;2.05;1.00;;;25.00;84.00;;;;;;4997370;28;20400;-88
2022/11/06 01:06:18;;;;;;;4.63;1.10;;;25.70;80.10;;;;;;5008562;28;20413;-87
2022/11/06 01:08:46;;;;;;;3.07;1.30;;;25.60;78.70;;;;;;4994976;28;20410;-88
2022/11/06 01:11:19;;;;;;;3.78;1.15;;;25.70;78.30;;;;;;4999030;28;20471;-89
2022/11/06 01:13:50;;;;;;;2.58;1.10;;;26.00;76.50;;;;;;5001853;28;20396;-84
2022/11/06 01:16:18;;;;;;;2.88;1.10;;;26.30;76.20;;;;;;4992975;28;20391;-84
2022/11/06 01:18:46;;;;;;;2.45;1.10;;;26.80;72.40;;;;;;5001413;28;20387;-84
2022/11/06 01:21:16;;;;;;;1.73;0.93;;;27.30;70.60;;;;;;4996326;28;20474;-85
2022/11/06 01:23:44;;;;;;;4.30;1.02;;;27.80;69.90;;;;;;4999984;28;20395;-85
2022/11/06 01:26:12;;;;;;;3.90;1.10;;;28.00;68.60;;;;;;5002918;28;20478;-89
2022/11/06 01:28:40;;;;;;;3.70;1.10;;;28.10;67.50;;;;;;5010539;28;20373;-88
2022/11/06 01:31:11;;;;;;;2.13;1.10;;;28.00;68.60;;;;;;4998005;28;20400;-87
2022/11/06 01:33:38;;;;;;;2.92;1.30;;;28.20;67.90;;;;;;4999007;28;20489;-85
2022/11/06 01:36:08;;;;;;;4.07;1.33;;;28.30;67.30;;;;;;5010707;28;20390;-89
2022/11/06 01:38:35;;;;;;;4.00;1.20;;;28.70;66.20;;;;;;5010734;28;20395;-87
2022/11/06 01:41:02;;;;;;;2.30;1.20;;;29.00;64.40;;;;;;4999499;28;20411;-86
2022/11/06 01:43:57;;;;;;;3.20;1.10;;;29.50;64.40;;;;;;5010493;28;20743;-88
2022/11/06 01:46:30;;;;;;;3.90;1.13;;;29.80;59.50;;;;;;5005214;28;20378;-87
2022/11/06 01:49:06;;;;;;;2.42;1.00;;;30.00;59.60;;;;;;5012585;28;20371;-90
2022/11/06 01:51:50;;;;;;;2.45;1.00;;;30.30;56.70;;;;;;5006698;28;20965;-85
2022/11/06 01:54:17;;;;;;;7.35;1.10;;;30.00;57.80;;;;;;5004869;28;20441;-85
2022/11/06 01:56:46;;;;;;;2.03;0.93;;;30.40;58.70;;;;;;4991504;28;20439;-83
2022/11/06 01:59:17;;;;;;;2.40;1.10;;;30.50;57.60;;;;;;5008404;28;20401;-83
2022/11/06 02:01:44;;;;;;;5.10;1.20;;;31.10;57.10;;;;;;5001730;28;20403;-87
2022/11/06 02:04:16;;;;;;;2.40;0.97;;;31.10;54.80;;;;;;4998821;28;20431;-86
2022/11/06 02:06:46;;;;;;;1.85;1.02;;;31.20;53.20;;;;;;5005067;28;20397;-85
2022/11/06 02:09:13;;;;;;;2.73;0.93;;;31.20;52.80;;;;;;5012520;28;20371;-82
2022/11/06 02:12:12;;;;;;;2.15;0.93;;;31.50;53.80;;;;;;5002621;28;20391;-85
2022/11/06 02:15:12;;;;;;;1.90;0.95;;;31.90;52.90;;;;;;4953834;28;20476;-86
2022/11/06 02:18:12;;;;;;;2.67;1.10;;;31.10;52.80;;;;;;4965093;28;20422;-89
2022/11/06 02:21:20;;;;;;;6.97;1.00;;;31.20;53.70;;;;;;4963955;28;20386;-85
2022/11/06 02:23:52;;;;;;;3.00;1.00;;;32.40;51.20;;;;;;4968110;28;20410;-89
2022/11/06 02:26:23;;;;;;;2.85;1.15;;;33.00;49.30;;;;;;4966418;28;20495;-82
2022/11/06 02:29:14;;;;;;;3.08;1.10;;;33.70;48.10;;;;;;4962122;28;20456;-87
2022/11/06 02:31:43;;;;;;;4.35;1.40;;;34.90;45.70;;;;;;4972422;28;20370;-90
2022/11/06 02:34:14;;;;;;;2.40;1.02;;;35.20;45.60;;;;;;4971070;28;20401;-87
2022/11/06 02:36:51;;;;;;;2.10;0.90;;;34.60;44.20;;;;;;4967681;28;20395;-87
2022/11/06 02:39:22;;;;;;;3.95;1.20;;;33.50;45.90;;;;;;4953568;28;20420;-87
2022/11/06 02:41:51;;;;;;;3.58;1.30;;;32.00;47.70;;;;;;4969566;28;20747;-88
2022/11/06 02:44:22;;;;;;;2.53;1.10;;;31.10;49.80;;;;;;4969545;28;20418;-85
2022/11/06 02:46:51;;;;;;;2.78;1.08;;;30.90;50.00;;;;;;4955805;28;20378;-88
2022/11/06 02:49:25;;;;;;;3.25;1.05;;;30.60;49.90;;;;;;4961576;28;20409;-86
2022/11/06 02:52:13;;;;;;;1.90;1.10;;;30.00;50.80;;;;;;4977166;28;20395;-93
2022/11/06 02:54:45;;;;;;;2.53;1.02;;;29.50;51.70;;;;;;4985653;28;20437;-89
2022/11/06 02:57:14;;;;;;;3.33;1.20;;;28.60;51.70;;;;;;5000869;28;20383;-87
2022/11/06 03:00:02;;;;;;;2.05;1.20;;;28.10;54.00;;;;;;5000791;28;20379;-92
2022/11/06 03:02:54;;;;;;;3.50;1.30;;;29.00;52.70;;;;;;5011968;28;20449;-90
2022/11/06 03:05:50;;;;;;;1.90;1.30;;;31.20;49.70;;;;;;5003729;28;20423;-85
2022/11/06 03:08:36;;;;;;;4.53;2.85;;;32.80;48.00;;;;;;4994393;28;20748;-83
2022/11/06 03:11:23;;;;;;;5.35;3.05;;;34.20;47.30;;;;;;4996212;28;20484;-85
2022/11/06 03:13:53;;;;;;;3.30;3.00;;;35.10;45.50;;;;;;5003872;28;20375;-86
2022/11/06 03:16:27;;;;;;;5.25;3.30;;;35.60;43.30;;;;;;4997425;28;20391;-83
2022/11/06 03:19:19;;;;;;;8.55;5.25;;;36.10;44.10;;;;;;5001268;28;20385;-86
2022/11/06 03:22:24;;;;;;;9.55;7.00;;;36.40;44.10;;;;;;4990575;28;20417;-88
2022/11/06 03:24:59;;;;;;;16.73;11.95;;;36.10;44.80;;;;;;4984559;28;20422;-88
2022/11/06 03:27:36;;;;;;;15.10;12.02;;;35.90;45.30;;;;;;4958918;28;20399;-87
2022/11/06 03:30:07;;;;;;;18.35;15.02;;;35.60;45.60;;;;;;4950067;28;20924;-86
2022/11/06 03:32:40;;;;;;;19.03;13.93;;;35.80;45.70;;;;;;4957108;28;20396;-85
2022/11/06 03:35:29;;;;;;;16.90;13.87;;;35.20;45.40;;;;;;4956204;28;20513;-86
2022/11/06 03:38:11;;;;;;;19.00;16.23;;;33.70;47.70;;;;;;4858226;28;3204707;-88
2022/11/06 03:41:04;;;;;;;21.83;19.40;;;31.90;48.70;;;;;;4944611;28;20415;-85
2022/11/06 03:43:36;;;;;;;22.60;17.58;;;31.10;50.70;;;;;;4955442;28;20398;-85
2022/11/06 03:46:10;;;;;;;21.00;16.58;;;30.50;52.80;;;;;;4965641;28;20485;-88
2022/11/06 03:48:42;;;;;;;20.15;15.18;;;31.00;52.90;;;;;;4970867;28;20429;-83
2022/11/06 03:51:23;;;;;;;18.23;13.80;;;31.90;51.50;;;;;;4958098;28;20403;-86
2022/11/06 03:53:55;;;;;;;115.95;15.77;;;32.60;51.10;;;;;;4966604;28;20422;-85
2022/11/06 03:56:36;;;;;;;11.52;9.60;;;32.20;50.80;;;;;;4972180;28;20395;-85
2022/11/06 03:59:06;;;;;;;12.52;9.10;;;31.20;51.60;;;;;;4958569;28;21041;-90
2022/11/06 04:01:43;;;;;;;12.48;9.90;;;30.20;53.10;;;;;;4989564;28;20387;-89
2022/11/06 04:04:45;;;;;;;14.93;10.30;;;29.30;54.30;;;;;;5011915;28;20403;-88
2022/11/06 04:07:16;;;;;;;25.30;10.13;;;28.40;56.30;;;;;;4998461;28;20400;-87
2022/11/06 04:15:21;;;;;;;16.60;9.37;;;29.20;56.10;;;;;;4985572;28;20424;-84
2022/11/06 04:17:48;;;;;;;16.42;9.30;;;30.60;53.90;;;;;;5002098;28;20418;-85
2022/11/06 04:23:31;;;;;;;16.17;12.80;;;32.40;50.90;;;;;;5005011;28;20394;-85
2022/11/06 04:26:37;;;;;;;15.80;13.07;;;32.30;50.10;;;;;;4994290;28;20408;-86
2022/11/06 04:29:26;;;;;;;18.17;15.43;;;31.20;51.30;;;;;;4999559;28;20392;-85
2022/11/06 04:32:15;;;;;;;18.60;16.15;;;31.10;52.30;;;;;;4992223;28;20424;-85
2022/11/06 04:34:44;;;;;;;15.93;12.38;;;31.80;51.00;;;;;;5011797;28;20455;-83
2022/11/06 04:37:18;;;;;;;15.05;11.13;;;32.10;50.40;;;;;;4998946;28;20418;-83
2022/11/06 04:40:15;;;;;;;11.80;9.98;;;31.40;50.50;;;;;;4994156;28;20463;-85
2022/11/06 04:43:05;;;;;;;12.13;8.70;;;31.10;51.80;;;;;;4999403;28;20483;-83
2022/11/06 04:45:40;;;;;;;9.88;7.18;;;31.50;51.30;;;;;;4991479;28;20415;-83
2022/11/06 04:48:08;;;;;;;11.77;8.57;;;32.00;50.60;;;;;;4993482;28;20448;-90
2022/11/06 04:50:47;;;;;;;8.68;5.15;;;32.30;50.20;;;;;;4999248;28;20484;-84
2022/11/06 04:53:17;;;;;;;5.43;4.40;;;32.30;50.30;;;;;;5002181;28;20446;-84
2022/11/06 04:55:50;;;;;;;9.35;4.85;;;32.50;50.30;;;;;;4993543;28;20912;-85
2022/11/06 04:58:17;;;;;;;8.50;5.40;;;32.60;49.50;;;;;;5001418;28;20875;-85
2022/11/06 05:00:51;;;;;;;9.63;4.60;;;32.10;48.80;;;;;;4997513;28;20460;-86
2022/11/06 05:03:18;;;;;;;6.75;4.22;;;32.30;49.70;;;;;;4992178;28;20400;-89
2022/11/06 05:05:45;;;;;;;5.32;3.88;;;32.40;50.40;;;;;;4995471;28;20416;-88
2022/11/06 05:08:17;;;;;;;7.05;3.97;;;32.70;49.00;;;;;;5006485;28;20402;-85
2022/11/06 05:10:45;;;;;;;7.20;5.15;;;32.70;48.40;;;;;;4997350;28;20395;-85
2022/11/06 05:13:13;;;;;;;7.22;4.65;;;32.90;47.80;;;;;;5011566;28;20407;-88
2022/11/06 05:15:43;;;;;;;7.03;3.93;;;32.50;48.50;;;;;;5012211;28;20458;-91
2022/11/06 05:18:10;;;;;;;6.07;4.35;;;32.30;48.60;;;;;;5011640;28;20383;-85
2022/11/06 05:20:37;;;;;;;7.30;3.58;;;32.10;49.10;;;;;;5011931;28;20380;-85
2022/11/06 05:23:04;;;;;;;4.30;2.92;;;32.20;49.20;;;;;;4997571;28;20379;-91
2022/11/06 05:25:34;;;;;;;5.88;3.00;;;32.40;48.30;;;;;;5011117;28;20477;-89
2022/11/06 05:28:04;;;;;;;5.38;2.90;;;32.60;48.10;;;;;;5010687;28;20409;-89
2022/11/06 05:30:32;;;;;;;6.30;2.30;;;32.40;49.00;;;;;;5010541;28;20386;-87
2022/11/06 05:32:59;;;;;;;5.20;2.70;;;32.30;48.50;;;;;;5010867;28;20466;-86
2022/11/06 05:35:26;;;;;;;5.38;3.25;;;32.20;49.70;;;;;;5010982;28;20425;-91
2022/11/06 05:38:02;;;;;;;6.47;3.92;;;32.30;49.60;;;;;;5010219;28;20784;-85
2022/11/06 05:40:30;;;;;;;6.57;3.70;;;32.50;49.80;;;;;;5013306;28;20870;-88
2022/11/06 05:42:57;;;;;;;8.15;3.85;;;32.20;50.10;;;;;;5002438;28;20423;-90
2022/11/06 05:45:24;;;;;;;7.55;2.92;;;32.20;50.80;;;;;;4987539;28;20414;-89
2022/11/06 05:47:51;;;;;;;6.78;4.57;;;32.10;50.40;;;;;;5015014;28;20460;-85
2022/11/06 05:50:18;;;;;;;7.80;5.70;;;31.90;51.20;;;;;;5012362;28;20783;-87
2022/11/06 05:52:45;;;;;;;6.00;4.03;;;31.80;50.90;;;;;;5008527;28;20380;-91
2022/11/06 05:55:12;;;;;;;7.47;4.13;;;31.70;51.30;;;;;;5023422;28;20398;-87
2022/11/06 05:57:39;;;;;;;12.52;8.38;;;31.50;51.70;;;;;;5014474;28;20422;-89
2022/11/06 06:00:08;;;;;;;15.10;10.43;;;31.20;50.90;;;;;;5004699;28;20776;-90
2022/11/06 06:02:36;;;;;;;12.00;8.45;;;31.20;51.70;;;;;;5013494;28;20445;-89
2022/11/06 06:05:04;;;;;;;10.50;6.73;;;31.10;51.40;;;;;;5012251;28;20927;-90
2022/11/06 06:07:31;;;;;;;10.48;6.70;;;30.50;51.70;;;;;;4997465;28;20384;-86
2022/11/06 06:09:59;;;;;;;10.10;7.28;;;29.90;53.00;;;;;;4999676;28;20540;-87
2022/11/06 06:12:29;;;;;;;12.80;8.93;;;29.20;54.00;;;;;;5009578;28;20430;-85
2022/11/06 06:14:56;;;;;;;13.80;8.88;;;28.40;55.60;;;;;;5014781;28;20867;-82
2022/11/06 06:17:23;;;;;;;12.90;8.55;;;28.30;55.80;;;;;;5011218;28;20955;-86
2022/11/06 06:19:51;;;;;;;13.55;8.43;;;28.40;56.00;;;;;;5015764;28;20379;-81
2022/11/06 06:22:18;;;;;;;12.02;8.82;;;28.70;55.60;;;;;;5016285;28;20418;-89
2022/11/06 06:24:44;;;;;;;10.40;6.80;;;28.70;55.10;;;;;;5012130;28;20418;-91
2022/11/06 06:27:11;;;;;;;11.13;7.00;;;28.90;54.10;;;;;;5004018;28;20382;-91
2022/11/06 06:29:38;;;;;;;10.95;6.80;;;28.60;54.30;;;;;;5012389;28;20387;-92
2022/11/06 06:32:06;;;;;;;9.43;6.80;;;28.50;55.10;;;;;;5013196;28;20383;-92
2022/11/06 06:34:33;;;;;;;10.90;7.38;;;28.40;54.50;;;;;;5008768;28;20950;-90
2022/11/06 06:37:00;;;;;;;10.30;7.73;;;28.20;54.70;;;;;;5009718;28;20483;-88
2022/11/06 06:39:27;;;;;;;11.95;8.43;;;27.90;55.40;;;;;;4998950;28;20407;-89
2022/11/06 06:41:54;;;;;;;14.98;8.65;;;27.40;56.30;;;;;;4994842;28;20429;-91
2022/11/06 06:44:23;;;;;;;11.67;7.50;;;27.10;57.20;;;;;;4985928;28;20442;-90
2022/11/06 06:46:50;;;;;;;12.00;8.13;;;26.90;57.40;;;;;;5007113;28;20395;-90
2022/11/06 06:49:17;;;;;;;13.45;9.93;;;26.60;57.70;;;;;;5013860;28;20391;-90
2022/11/06 06:51:46;;;;;;;13.38;11.52;;;26.20;58.60;;;;;;5015282;28;20544;-86
2022/11/06 06:54:13;;;;;;;14.27;10.10;;;25.90;59.90;;;;;;5015748;28;20724;-90
2022/11/06 06:56:40;;;;;;;13.73;8.77;;;25.50;60.60;;;;;;4993354;28;20927;-87
2022/11/06 06:59:09;;;;;;;13.57;9.50;;;25.30;60.70;;;;;;5013057;28;20388;-94
2022/11/06 07:01:36;;;;;;;15.35;10.98;;;25.10;61.30;;;;;;4982392;28;20392;-95
2022/11/06 07:04:11;;;;;;;14.75;10.50;;;24.90;62.90;;;;;;5001071;28;20432;-94
2022/11/06 07:06:38;;;;;;;16.50;11.48;;;24.60;63.60;;;;;;4978486;28;20924;-91
2022/11/06 07:09:05;;;;;;;15.33;10.40;;;24.50;64.10;;;;;;4987316;28;20995;-93
2022/11/06 07:11:32;;;;;;;12.48;8.25;;;24.40;64.90;;;;;;4965755;28;20407;-91
2022/11/06 07:14:01;;;;;;;11.00;5.90;;;24.30;65.00;;;;;;4970935;28;20396;-90
2022/11/06 07:16:28;;;;;;;11.98;6.22;;;24.30;64.70;;;;;;4992390;28;20459;-89
2022/11/06 07:18:56;;;;;;;10.18;6.32;;;24.10;65.40;;;;;;4986754;28;20409;-91
2022/11/06 07:21:23;;;;;;;8.50;4.60;;;23.70;66.70;;;;;;4948095;28;20390;-89
2022/11/06 07:23:50;;;;;;;6.30;3.00;;;23.60;67.50;;;;;;4972599;28;20431;-92
2022/11/06 07:26:17;;;;;;;4.50;2.67;;;23.30;68.70;;;;;;4954430;28;20989;-88
2022/11/06 07:28:44;;;;;;;5.30;2.30;;;23.00;69.80;;;;;;4969712;28;20392;-88
2022/11/06 07:31:14;;;;;;;7.53;2.13;;;22.90;71.10;;;;;;4957547;28;20401;-93
2022/11/06 07:33:41;;;;;;;5.47;1.95;;;22.80;71.40;;;;;;4975946;28;20804;-93
2022/11/06 07:36:12;;;;;;;5.57;2.10;;;22.60;72.00;;;;;;4970427;28;20534;-88
2022/11/06 07:38:43;;;;;;;6.88;2.05;;;22.60;72.90;;;;;;4952284;28;20414;-89
2022/11/06 07:41:13;;;;;;;6.68;2.28;;;22.50;73.80;;;;;;4969804;28;20445;-85
2022/11/06 07:43:41;;;;;;;5.32;1.95;;;22.40;74.60;;;;;;4996774;28;20385;-88
2022/11/06 07:46:09;;;;;;;4.07;1.50;;;22.30;75.30;;;;;;4985401;28;20736;-88
2022/11/06 07:48:36;;;;;;;5.18;1.63;;;22.10;76.40;;;;;;5010960;28;20413;-87
2022/11/06 07:51:06;;;;;;;4.15;1.30;;;22.00;77.70;;;;;;5012514;28;20721;-92
2022/11/06 07:53:33;;;;;;;5.82;1.40;;;21.90;79.30;;;;;;5020677;28;20473;-93
2022/11/06 07:56:01;;;;;;;6.22;1.20;;;21.80;80.60;;;;;;5008818;28;20415;-95
2022/11/06 07:58:28;;;;;;;6.55;1.40;;;21.60;82.20;;;;;;5015185;28;20405;-92
2022/11/06 08:00:57;;;;;;;5.90;1.30;;;21.50;84.20;;;;;;5000925;28;20397;-91
2022/11/06 08:03:28;;;;;;;8.25;1.33;;;21.40;86.40;;;;;;5013381;28;20399;-94
2022/11/06 08:05:58;;;;;;;4.13;1.13;;;21.30;88.80;;;;;;5010413;28;20446;-93
2022/11/06 08:08:25;;;;;;;7.15;1.40;;;21.30;90.80;;;;;;5011277;28;20385;-91
2022/11/06 08:10:52;;;;;;;4.80;1.30;;;21.10;91.80;;;;;;4996310;28;20493;-93
2022/11/06 08:13:19;;;;;;;5.13;1.40;;;21.00;92.90;;;;;;4993172;28;20417;-91
2022/11/06 08:15:46;;;;;;;5.75;1.52;;;20.90;94.30;;;;;;4992419;28;20389;-92
2022/11/06 08:18:13;;;;;;;6.18;1.30;;;20.90;95.70;;;;;;4999902;28;20747;-90
2022/11/06 08:20:40;;;;;;;5.20;1.60;;;20.80;96.00;;;;;;4994276;28;20462;-88
2022/11/06 08:23:10;;;;;;;4.28;1.48;;;20.70;96.90;;;;;;4992776;28;20420;-84
2022/11/06 08:25:37;;;;;;;7.75;1.50;;;20.60;97.90;;;;;;4995956;28;20951;-84
2022/11/06 08:28:04;;;;;;;3.75;1.40;;;20.60;98.10;;;;;;4997616;28;20387;-84
2022/11/06 08:30:32;;;;;;;5.90;1.40;;;20.60;98.60;;;;;;4992914;28;20440;-87
2022/11/06 08:33:04;;;;;;;5.22;1.30;;;20.60;98.80;;;;;;4992202;28;20384;-85
2022/11/06 08:35:33;;;;;;;6.72;1.35;;;20.60;99.00;;;;;;4998602;28;20450;-85
2022/11/06 08:38:01;;;;;;;3.83;1.30;;;20.50;99.50;;;;;;4996166;28;20492;-86
2022/11/06 08:40:29;;;;;;;6.50;1.50;;;20.50;99.90;;;;;;4992126;28;20817;-86
2022/11/06 08:43:00;;;;;;;5.57;1.30;;;20.40;99.90;;;;;;4988473;28;20388;-88
2022/11/06 08:45:27;;;;;;;7.32;1.80;;;20.40;99.90;;;;;;4988508;28;20400;-87
2022/11/06 08:47:54;;;;;;;9.07;1.73;;;20.40;99.90;;;;;;5003370;28;20510;-87
2022/11/06 08:50:21;;;;;;;5.30;1.30;;;20.30;99.90;;;;;;5012038;28;20382;-87
2022/11/06 08:52:48;;;;;;;3.58;1.40;;;20.20;99.90;;;;;;5010432;28;20383;-86
2022/11/06 08:55:15;;;;;;;5.30;1.42;;;20.10;99.90;;;;;;5000355;28;20419;-87
2022/11/06 08:57:42;;;;;;;8.82;1.38;;;20.10;99.90;;;;;;4998562;28;20395;-85
2022/11/06 09:00:10;;;;;;;5.85;1.40;;;20.20;99.90;;;;;;5004640;28;20892;-88
2022/11/06 09:02:37;;;;;;;5.95;1.35;;;20.10;99.90;;;;;;5009356;28;20466;-90
2022/11/06 09:05:05;;;;;;;4.40;1.40;;;20.00;99.90;;;;;;4997330;28;20761;-87
2022/11/06 09:07:32;;;;;;;5.10;1.60;;;20.00;99.90;;;;;;5008554;28;20393;-90
2022/11/06 09:09:59;;;;;;;6.27;1.60;;;19.90;99.90;;;;;;4988857;28;20397;-93
2022/11/06 09:12:26;;;;;;;6.93;1.60;;;19.90;99.90;;;;;;4994581;28;20388;-90
2022/11/06 09:14:53;;;;;;;4.88;1.20;;;19.70;99.90;;;;;;5007044;28;20426;-91
2022/11/06 09:17:22;;;;;;;5.75;1.20;;;19.70;99.90;;;;;;5002223;28;20972;-85
2022/11/06 09:19:53;;;;;;;5.93;1.50;;;19.60;99.90;;;;;;4999174;28;20892;-90
2022/11/06 09:22:21;;;;;;;6.70;1.50;;;19.60;99.90;;;;;;4996226;28;20455;-88
2022/11/06 09:24:48;;;;;;;6.53;1.40;;;19.50;99.90;;;;;;4999198;28;20445;-90
2022/11/06 09:27:15;;;;;;;5.47;1.50;;;19.40;99.90;;;;;;5003038;28;20847;-87
2022/11/06 09:29:43;;;;;;;6.23;1.60;;;19.40;99.90;;;;;;5008421;28;20444;-87
2022/11/06 09:32:11;;;;;;;6.00;1.30;;;19.40;99.90;;;;;;5004544;28;20441;-84
2022/11/06 09:34:42;;;;;;;7.75;1.45;;;19.30;99.90;;;;;;5002352;28;20408;-93
2022/11/06 09:37:09;;;;;;;6.33;1.33;;;19.20;99.90;;;;;;5013991;28;20425;-91
2022/11/06 09:39:36;;;;;;;5.30;1.30;;;19.10;99.90;;;;;;5002536;28;20407;-92
2022/11/06 09:42:29;;;;;;;4.97;1.33;;;19.00;99.90;;;;;;5017561;28;20394;-90
2022/11/06 09:45:24;;;;;;;6.70;1.30;;;19.00;99.90;;;;;;5000203;28;20425;-88
2022/11/06 09:48:17;;;;;;;7.65;1.48;;;19.00;99.90;;;;;;4995183;28;20381;-88
2022/11/06 09:50:58;;;;;;;4.82;1.20;;;18.90;99.90;;;;;;5000755;28;20500;-87
2022/11/06 09:53:38;;;;;;;5.72;1.30;;;18.90;99.90;;;;;;5017339;28;20367;-89
2022/11/06 09:56:10;;;;;;;6.40;1.38;;;18.80;99.90;;;;;;5002711;28;20436;-90
2022/11/06 09:58:40;;;;;;;6.77;1.40;;;18.80;99.90;;;;;;5013478;28;20379;-94
2022/11/06 10:01:28;;;;;;;7.25;1.40;;;18.70;99.90;;;;;;5025538;28;20422;-91
2022/11/06 10:03:59;;;;;;;6.00;1.40;;;18.70;99.90;;;;;;5001946;28;20400;-88
2022/11/06 10:06:27;;;;;;;6.93;1.23;;;18.70;99.90;;;;;;5002490;28;20422;-92
2022/11/06 10:09:02;;;;;;;4.95;1.20;;;18.60;99.90;;;;;;4997691;28;20873;-91
2022/11/06 10:11:50;;;;;;;4.18;1.30;;;18.60;99.90;;;;;;4986923;28;20394;-90
2022/11/06 10:14:44;;;;;;;5.78;1.35;;;18.60;99.90;;;;;;4993709;28;20495;-93
2022/11/06 10:17:30;;;;;;;6.53;1.60;;;18.60;99.90;;;;;;4991554;28;20908;-92
2022/11/06 10:20:11;;;;;;;7.22;1.40;;;18.60;99.90;;;;;;4999507;28;20505;-91
2022/11/06 10:22:58;;;;;;;9.93;1.30;;;18.50;99.90;;;;;;4998763;28;20403;-92
2022/11/06 10:25:35;;;;;;;7.70;1.33;;;18.50;99.90;;;;;;5000627;28;20439;-91
2022/11/06 10:28:13;;;;;;;7.00;1.27;;;18.40;99.90;;;;;;5005494;28;20879;-89
2022/11/06 10:30:50;;;;;;;6.25;1.50;;;18.30;99.90;;;;;;5013164;28;20373;-90
2022/11/06 10:33:42;;;;;;;5.32;1.20;;;18.30;99.90;;;;;;5007221;28;20877;-93
2022/11/06 10:36:35;;;;;;;6.65;1.40;;;18.20;99.90;;;;;;5007755;28;20404;-87
2022/11/06 10:39:10;;;;;;;5.30;1.48;;;18.30;99.90;;;;;;4997606;28;20405;-89
2022/11/06 10:41:38;;;;;;;5.72;1.40;;;18.20;99.90;;;;;;5018182;28;20871;-90
2022/11/06 10:44:07;;;;;;;7.90;1.38;;;18.20;99.90;;;;;;5000121;28;20418;-87
2022/11/06 10:46:47;;;;;;;6.25;1.48;;;18.20;99.90;;;;;;5019349;28;20403;-92
2022/11/06 10:49:29;;;;;;;6.50;1.30;;;18.10;99.90;;;;;;5015583;28;20395;-92
2022/11/06 10:52:30;;;;;;;6.82;1.60;;;18.10;99.90;;;;;;5007012;28;20856;-95
2022/11/06 10:55:15;;;;;;;7.13;1.42;;;18.10;99.90;;;;;;4995206;28;20428;-91
2022/11/06 10:58:12;;;;;;;5.43;1.40;;;18.00;99.90;;;;;;5000913;28;20421;-93
2022/11/06 11:00:40;;;;;;;6.60;1.27;;;18.00;99.90;;;;;;4993959;28;20406;-91
2022/11/06 11:03:22;;;;;;;3.97;1.20;;;17.90;99.90;;;;;;5010399;28;20379;-95
2022/11/06 11:05:50;;;;;;;6.28;1.45;;;17.90;99.90;;;;;;5000997;28;20496;-92
2022/11/06 11:08:40;;;;;;;6.68;1.45;;;17.80;99.90;;;;;;5012072;28;20383;-88
2022/11/06 11:11:13;;;;;;;6.80;1.50;;;17.80;99.90;;;;;;5000127;28;20398;-91
2022/11/06 11:13:45;;;;;;;6.40;1.50;;;17.80;99.90;;;;;;5016841;28;20381;-92
2022/11/06 11:16:45;;;;;;;5.90;1.40;;;17.70;99.90;;;;;;5013083;28;20392;-92
2022/11/06 11:19:41;;;;;;;6.45;1.40;;;17.50;99.90;;;;;;4978508;28;20527;-90
2022/11/06 11:22:18;;;;;;;8.38;1.40;;;17.50;99.90;;;;;;4970258;28;20398;-90
2022/11/06 11:25:06;;;;;;;5.05;1.48;;;17.30;99.90;;;;;;4967917;28;20420;-91
2022/11/06 11:27:59;;;;;;;6.80;1.30;;;17.30;99.90;;;;;;4953325;28;20422;-90
2022/11/06 11:30:28;;;;;;;5.18;1.50;;;17.20;99.90;;;;;;4965390;28;20398;-89
2022/11/06 11:32:56;;;;;;;4.40;1.42;;;17.20;99.90;;;;;;4971012;28;20430;-86
2022/11/06 11:35:29;;;;;;;8.15;1.40;;;17.10;99.90;;;;;;4957785;29;20447;-87
2022/11/06 11:38:13;;;;;;;4.85;1.38;;;17.10;99.90;;;;;;4957074;28;20408;-86
2022/11/06 11:40:40;;;;;;;7.25;1.55;;;17.00;99.90;;;;;;4957278;28;20873;-89
2022/11/06 11:43:22;;;;;;;4.75;1.40;;;17.00;99.90;;;;;;4953201;29;20395;-90
2022/11/06 11:46:07;;;;;;;7.38;1.40;;;16.90;99.90;;;;;;4954612;28;20420;-93
2022/11/06 11:48:56;;;;;;;8.00;1.50;;;16.90;99.90;;;;;;4952073;28;20424;-90
2022/11/06 11:51:41;;;;;;;7.22;1.70;;;16.90;99.90;;;;;;4932591;29;20506;-90
2022/11/06 11:54:14;;;;;;;5.45;1.40;;;16.80;99.90;;;;;;4964610;28;20406;-90
2022/11/06 11:56:54;;;;;;;4.65;1.33;;;16.70;99.90;;;;;;5003347;28;20405;-91
2022/11/06 11:59:50;;;;;;;6.07;1.90;;;16.70;99.90;;;;;;5008394;28;20396;-90
2022/11/06 12:02:33;;;;;;;6.82;1.73;;;16.70;99.90;;;;;;4985255;28;20400;-89
2022/11/06 12:05:13;;;;;;;9.03;1.90;;;16.70;99.90;;;;;;5011258;28;20787;-90
2022/11/06 12:07:53;;;;;;;6.50;1.60;;;16.70;99.90;;;;;;5008288;28;20414;-89
2022/11/06 12:10:28;;;;;;;5.20;1.63;;;16.70;99.90;;;;;;5006921;28;20396;-87
2022/11/06 12:12:56;;;;;;;5.25;1.35;;;16.60;99.90;;;;;;5006714;28;20379;-89
2022/11/06 12:15:23;;;;;;;6.70;1.48;;;16.60;99.90;;;;;;5016593;28;20383;-89
2022/11/06 12:17:56;;;;;;;7.60;1.67;;;16.60;99.90;;;;;;5000582;28;20385;-86
2022/11/06 12:20:55;;;;;;;8.02;1.70;;;16.50;99.90;;;;;;5007828;28;20393;-89
2022/11/06 12:23:36;;;;;;;5.72;1.67;;;16.50;99.90;;;;;;4966632;28;20388;-89
2022/11/06 12:26:21;;;;;;;4.90;1.60;;;16.40;99.90;;;;;;4953856;28;20420;-88
2022/11/06 12:28:52;;;;;;;6.95;1.58;;;16.30;99.90;;;;;;4970580;28;20498;-87
2022/11/06 12:31:38;;;;;;;5.63;1.52;;;16.30;99.90;;;;;;4956866;28;20898;-87
2022/11/06 12:34:11;;;;;;;7.47;1.60;;;16.20;99.90;;;;;;4963893;28;20435;-90
2022/11/06 12:36:44;;;;;;;7.20;1.40;;;16.20;99.90;;;;;;4952313;28;20432;-91
2022/11/06 12:39:23;;;;;;;6.20;1.60;;;16.20;99.90;;;;;;4969816;28;20982;-84
2022/11/06 12:41:52;;;;;;;6.38;1.50;;;16.10;99.90;;;;;;4971248;28;20390;-88
2022/11/06 12:44:19;;;;;;;8.27;1.60;;;16.10;99.90;;;;;;4965322;28;20402;-86
2022/11/06 12:46:57;;;;;;;7.28;1.70;;;16.10;99.90;;;;;;4964286;28;20419;-87
2022/11/06 12:49:36;;;;;;;6.13;1.50;;;16.20;99.90;;;;;;4955331;28;20392;-88
2022/11/06 12:52:24;;;;;;;7.45;1.58;;;16.00;99.90;;;;;;4949955;28;20426;-87
2022/11/06 12:55:03;;;;;;;6.35;1.70;;;16.00;99.90;;;;;;4970135;28;20929;-89
2022/11/06 12:57:50;;;;;;;6.13;1.50;;;15.90;99.90;;;;;;4967307;28;20952;-88
2022/11/06 13:00:29;;;;;;;8.93;1.58;;;15.90;99.90;;;;;;4983803;28;20750;-88
2022/11/06 13:03:17;;;;;;;6.10;1.70;;;15.80;99.90;;;;;;5000957;28;20382;-89
2022/11/06 13:05:52;;;;;;;5.47;1.40;;;15.80;99.90;;;;;;4997263;28;20404;-88
2022/11/06 13:08:34;;;;;;;5.60;1.50;;;15.70;99.90;;;;;;5009758;28;20395;-87
2022/11/06 13:11:17;;;;;;;6.28;1.63;;;15.70;99.90;;;;;;4998531;28;20380;-87
2022/11/06 13:13:47;;;;;;;5.00;1.50;;;15.70;99.90;;;;;;5011372;28;20399;-90
2022/11/06 13:16:26;;;;;;;4.28;1.60;;;15.60;99.90;;;;;;5000984;28;20398;-92
2022/11/06 13:19:09;;;;;;;6.55;1.70;;;15.60;99.90;;;;;;5005949;28;20804;-89
2022/11/06 13:22:08;;;;;;;7.35;1.70;;;15.60;99.90;;;;;;4995700;28;20383;-88
2022/11/06 13:24:38;;;;;;;7.20;1.73;;;15.60;99.90;;;;;;4997179;28;20439;-88
2022/11/06 13:27:28;;;;;;;8.02;1.85;;;15.60;99.90;;;;;;5003708;28;20391;-90
2022/11/06 13:30:01;;;;;;;7.18;1.95;;;15.50;99.90;;;;;;5004046;28;20463;-92